sensor_id;sensor_type;location;lat;lon;timestamp;P1;durP1;ratioP1;P2;durP2;ratioP2
76259;SDS011;65076;52.362;6.588;2023-04-05T00:01:05;7.15;;;3.80;;
76259;SDS011;65076;52.362;6.588;2023-04-05T00:03:37;5.95;;;3.08;;
76259;SDS011;65076;52.362;6.588;2023-04-05T00:06:06;5.82;;;3.30;;
76259;SDS011;65076;52.362;6.588;2023-04-05T00:08:38;7.03;;;3.20;;
76259;SDS011;65076;52.362;6.588;2023-04-05T00:11:06;8.10;;;3.40;;
76259;SDS011;65076;52.362;6.588;2023-04-05T00:13:35;4.40;;;2.97;;
76259;SDS011;65076;52.362;6.588;2023-04-05T00:16:03;5.72;;;3.10;;
76259;SDS011;65076;52.362;6.588;2023-04-05T00:21:04;8.30;;;3.50;;
76259;SDS011;65076;52.362;6.588;2023-04-05T00:23:32;9.38;;;3.50;;
76259;SDS011;65076;52.362;6.588;2023-04-05T00:26:05;6.60;;;3.47;;
76259;SDS011;65076;52.362;6.588;2023-04-05T00:28:33;7.57;;;3.65;;
76259;SDS011;65076;52.362;6.588;2023-04-05T00:31:03;6.13;;;3.17;;
76259;SDS011;65076;52.362;6.588;2023-04-05T00:33:31;5.50;;;3.25;;
76259;SDS011;65076;52.362;6.588;2023-04-05T00:38:47;6.35;;;2.95;;
76259;SDS011;65076;52.362;6.588;2023-04-05T00:41:17;8.68;;;3.80;;
76259;SDS011;65076;52.362;6.588;2023-04-05T00:43:47;8.15;;;4.07;;
76259;SDS011;65076;52.362;6.588;2023-04-05T00:46:15;5.75;;;3.03;;
76259;SDS011;65076;52.362;6.588;2023-04-05T00:48:44;7.00;;;3.28;;
76259;SDS011;65076;52.362;6.588;2023-04-05T00:51:12;7.45;;;3.88;;
76259;SDS011;65076;52.362;6.588;2023-04-05T00:53:41;8.45;;;3.25;;
76259;SDS011;65076;52.362;6.588;2023-04-05T00:56:10;6.70;;;3.72;;
76259;SDS011;65076;52.362;6.588;2023-04-05T00:58:39;7.00;;;3.35;;
76259;SDS011;65076;52.362;6.588;2023-04-05T01:01:12;5.05;;;3.42;;
76259;SDS011;65076;52.362;6.588;2023-04-05T01:03:46;5.63;;;3.83;;
76259;SDS011;65076;52.362;6.588;2023-04-05T01:06:21;7.15;;;3.83;;
76259;SDS011;65076;52.362;6.588;2023-04-05T01:09:10;8.10;;;3.45;;
76259;SDS011;65076;52.362;6.588;2023-04-05T01:11:51;5.97;;;3.25;;
76259;SDS011;65076;52.362;6.588;2023-04-05T01:14:23;6.28;;;2.88;;
76259;SDS011;65076;52.362;6.588;2023-04-05T01:16:52;5.65;;;3.10;;
76259;SDS011;65076;52.362;6.588;2023-04-05T01:19:24;6.50;;;3.28;;
76259;SDS011;65076;52.362;6.588;2023-04-05T01:22:04;4.72;;;3.10;;
76259;SDS011;65076;52.362;6.588;2023-04-05T01:25:08;8.18;;;3.78;;
76259;SDS011;65076;52.362;6.588;2023-04-05T01:28:22;6.80;;;4.00;;
76259;SDS011;65076;52.362;6.588;2023-04-05T01:31:27;6.85;;;3.35;;
76259;SDS011;65076;52.362;6.588;2023-04-05T01:34:05;5.13;;;3.10;;
76259;SDS011;65076;52.362;6.588;2023-04-05T01:36:49;5.82;;;3.20;;
76259;SDS011;65076;52.362;6.588;2023-04-05T01:39:23;6.65;;;3.25;;
76259;SDS011;65076;52.362;6.588;2023-04-05T01:41:56;6.22;;;3.03;;
76259;SDS011;65076;52.362;6.588;2023-04-05T01:44:26;7.25;;;3.70;;
76259;SDS011;65076;52.362;6.588;2023-04-05T01:46:55;5.72;;;3.03;;
76259;SDS011;65076;52.362;6.588;2023-04-05T01:49:24;6.50;;;3.20;;
76259;SDS011;65076;52.362;6.588;2023-04-05T01:51:52;7.38;;;3.30;;
76259;SDS011;65076;52.362;6.588;2023-04-05T01:54:20;5.82;;;3.40;;
76259;SDS011;65076;52.362;6.588;2023-04-05T01:56:47;9.98;;;3.17;;
76259;SDS011;65076;52.362;6.588;2023-04-05T01:59:16;8.10;;;3.47;;
76259;SDS011;65076;52.362;6.588;2023-04-05T02:01:43;6.10;;;3.28;;
76259;SDS011;65076;52.362;6.588;2023-04-05T02:04:13;5.20;;;3.60;;
76259;SDS011;65076;52.362;6.588;2023-04-05T02:06:40;7.88;;;3.90;;
76259;SDS011;65076;52.362;6.588;2023-04-05T02:09:08;5.63;;;3.08;;
76259;SDS011;65076;52.362;6.588;2023-04-05T02:11:36;7.63;;;3.70;;
76259;SDS011;65076;52.362;6.588;2023-04-05T02:14:04;8.13;;;3.70;;
76259;SDS011;65076;52.362;6.588;2023-04-05T02:16:32;6.05;;;3.47;;
76259;SDS011;65076;52.362;6.588;2023-04-05T02:19:00;9.00;;;3.75;;
76259;SDS011;65076;52.362;6.588;2023-04-05T02:21:29;5.78;;;3.25;;
76259;SDS011;65076;52.362;6.588;2023-04-05T02:23:57;6.15;;;3.65;;
76259;SDS011;65076;52.362;6.588;2023-04-05T02:26:25;8.45;;;3.72;;
76259;SDS011;65076;52.362;6.588;2023-04-05T02:28:53;5.85;;;2.95;;
76259;SDS011;65076;52.362;6.588;2023-04-05T02:31:21;7.50;;;3.88;;
76259;SDS011;65076;52.362;6.588;2023-04-05T02:33:49;6.05;;;3.30;;
76259;SDS011;65076;52.362;6.588;2023-04-05T02:36:18;6.35;;;3.05;;
76259;SDS011;65076;52.362;6.588;2023-04-05T02:38:48;7.40;;;3.72;;
76259;SDS011;65076;52.362;6.588;2023-04-05T02:41:16;6.38;;;3.63;;
76259;SDS011;65076;52.362;6.588;2023-04-05T02:43:45;5.82;;;3.35;;
76259;SDS011;65076;52.362;6.588;2023-04-05T02:46:12;11.88;;;3.67;;
76259;SDS011;65076;52.362;6.588;2023-04-05T02:48:40;6.78;;;3.30;;
76259;SDS011;65076;52.362;6.588;2023-04-05T02:51:09;5.95;;;4.07;;
76259;SDS011;65076;52.362;6.588;2023-04-05T02:53:37;7.38;;;3.67;;
76259;SDS011;65076;52.362;6.588;2023-04-05T02:56:07;6.38;;;3.47;;
76259;SDS011;65076;52.362;6.588;2023-04-05T02:58:34;6.25;;;3.45;;
76259;SDS011;65076;52.362;6.588;2023-04-05T03:01:03;5.07;;;3.33;;
76259;SDS011;65076;52.362;6.588;2023-04-05T03:03:32;6.07;;;3.58;;
76259;SDS011;65076;52.362;6.588;2023-04-05T03:06:03;8.43;;;3.53;;
76259;SDS011;65076;52.362;6.588;2023-04-05T03:08:35;8.27;;;3.55;;
76259;SDS011;65076;52.362;6.588;2023-04-05T03:11:04;8.15;;;4.18;;
76259;SDS011;65076;52.362;6.588;2023-04-05T03:13:34;8.10;;;4.18;;
76259;SDS011;65076;52.362;6.588;2023-04-05T03:16:03;6.22;;;3.53;;
76259;SDS011;65076;52.362;6.588;2023-04-05T03:18:31;5.75;;;3.75;;
76259;SDS011;65076;52.362;6.588;2023-04-05T03:20:59;7.57;;;4.45;;
76259;SDS011;65076;52.362;6.588;2023-04-05T03:23:30;9.10;;;3.63;;
76259;SDS011;65076;52.362;6.588;2023-04-05T03:25:58;7.30;;;4.18;;
76259;SDS011;65076;52.362;6.588;2023-04-05T03:28:27;5.88;;;3.75;;
76259;SDS011;65076;52.362;6.588;2023-04-05T03:30:59;4.68;;;3.47;;
76259;SDS011;65076;52.362;6.588;2023-04-05T03:33:26;5.47;;;3.33;;
76259;SDS011;65076;52.362;6.588;2023-04-05T03:35:54;8.25;;;3.63;;
76259;SDS011;65076;52.362;6.588;2023-04-05T03:38:23;6.80;;;3.80;;
76259;SDS011;65076;52.362;6.588;2023-04-05T03:40:50;6.93;;;4.65;;
76259;SDS011;65076;52.362;6.588;2023-04-05T03:43:18;8.88;;;4.20;;
76259;SDS011;65076;52.362;6.588;2023-04-05T03:45:46;6.35;;;3.70;;
76259;SDS011;65076;52.362;6.588;2023-04-05T03:48:15;7.90;;;3.55;;
76259;SDS011;65076;52.362;6.588;2023-04-05T03:50:45;9.95;;;3.97;;
76259;SDS011;65076;52.362;6.588;2023-04-05T03:53:14;7.15;;;3.80;;
76259;SDS011;65076;52.362;6.588;2023-04-05T03:55:44;6.13;;;3.55;;
76259;SDS011;65076;52.362;6.588;2023-04-05T03:58:14;6.47;;;3.75;;
76259;SDS011;65076;52.362;6.588;2023-04-05T04:00:42;7.40;;;3.65;;
76259;SDS011;65076;52.362;6.588;2023-04-05T04:03:10;5.55;;;3.83;;
76259;SDS011;65076;52.362;6.588;2023-04-05T04:05:41;8.88;;;4.35;;
76259;SDS011;65076;52.362;6.588;2023-04-05T04:08:10;6.97;;;4.00;;
76259;SDS011;65076;52.362;6.588;2023-04-05T04:10:38;7.60;;;4.07;;
76259;SDS011;65076;52.362;6.588;2023-04-05T04:13:06;6.38;;;4.03;;
76259;SDS011;65076;52.362;6.588;2023-04-05T04:15:34;9.38;;;4.47;;
76259;SDS011;65076;52.362;6.588;2023-04-05T04:18:02;9.45;;;4.65;;
76259;SDS011;65076;52.362;6.588;2023-04-05T04:20:30;5.68;;;3.33;;
76259;SDS011;65076;52.362;6.588;2023-04-05T04:22:59;8.10;;;4.20;;
76259;SDS011;65076;52.362;6.588;2023-04-05T04:25:27;8.52;;;3.75;;
76259;SDS011;65076;52.362;6.588;2023-04-05T04:27:56;10.45;;;5.03;;
76259;SDS011;65076;52.362;6.588;2023-04-05T04:30:25;7.45;;;4.32;;
76259;SDS011;65076;52.362;6.588;2023-04-05T04:32:53;7.90;;;4.38;;
76259;SDS011;65076;52.362;6.588;2023-04-05T04:35:23;7.10;;;4.15;;
76259;SDS011;65076;52.362;6.588;2023-04-05T04:37:54;7.28;;;3.83;;
76259;SDS011;65076;52.362;6.588;2023-04-05T04:40:26;8.70;;;4.03;;
76259;SDS011;65076;52.362;6.588;2023-04-05T04:42:57;6.78;;;3.58;;
76259;SDS011;65076;52.362;6.588;2023-04-05T04:45:25;8.35;;;4.45;;
76259;SDS011;65076;52.362;6.588;2023-04-05T04:47:53;6.65;;;3.90;;
76259;SDS011;65076;52.362;6.588;2023-04-05T04:50:21;8.90;;;4.95;;
76259;SDS011;65076;52.362;6.588;2023-04-05T04:52:49;10.15;;;3.92;;
76259;SDS011;65076;52.362;6.588;2023-04-05T04:55:17;6.70;;;4.03;;
76259;SDS011;65076;52.362;6.588;2023-04-05T04:57:51;9.05;;;4.53;;
76259;SDS011;65076;52.362;6.588;2023-04-05T05:00:20;6.95;;;3.83;;
76259;SDS011;65076;52.362;6.588;2023-04-05T05:02:50;8.77;;;4.25;;
76259;SDS011;65076;52.362;6.588;2023-04-05T05:05:19;12.40;;;4.55;;
76259;SDS011;65076;52.362;6.588;2023-04-05T05:07:48;7.25;;;4.38;;
76259;SDS011;65076;52.362;6.588;2023-04-05T05:10:18;10.98;;;6.22;;
76259;SDS011;65076;52.362;6.588;2023-04-05T05:12:46;7.60;;;4.70;;
76259;SDS011;65076;52.362;6.588;2023-04-05T05:15:16;8.80;;;5.10;;
76259;SDS011;65076;52.362;6.588;2023-04-05T05:20:18;7.93;;;5.03;;
76259;SDS011;65076;52.362;6.588;2023-04-05T05:22:47;7.50;;;4.35;;
76259;SDS011;65076;52.362;6.588;2023-04-05T05:25:16;7.43;;;5.18;;
76259;SDS011;65076;52.362;6.588;2023-04-05T05:27:47;7.70;;;5.05;;
76259;SDS011;65076;52.362;6.588;2023-04-05T05:30:17;10.50;;;5.07;;
76259;SDS011;65076;52.362;6.588;2023-04-05T05:32:46;13.57;;;5.25;;
76259;SDS011;65076;52.362;6.588;2023-04-05T05:35:14;7.45;;;4.88;;
76259;SDS011;65076;52.362;6.588;2023-04-05T05:37:42;12.52;;;5.47;;
76259;SDS011;65076;52.362;6.588;2023-04-05T05:40:10;10.27;;;5.30;;
76259;SDS011;65076;52.362;6.588;2023-04-05T05:42:38;9.77;;;5.45;;
76259;SDS011;65076;52.362;6.588;2023-04-05T05:45:08;9.77;;;5.63;;
76259;SDS011;65076;52.362;6.588;2023-04-05T05:47:38;11.73;;;5.50;;
76259;SDS011;65076;52.362;6.588;2023-04-05T05:50:07;10.70;;;5.80;;
76259;SDS011;65076;52.362;6.588;2023-04-05T05:52:36;10.57;;;5.70;;
76259;SDS011;65076;52.362;6.588;2023-04-05T05:55:04;11.00;;;6.15;;
76259;SDS011;65076;52.362;6.588;2023-04-05T05:57:34;9.15;;;5.22;;
76259;SDS011;65076;52.362;6.588;2023-04-05T06:00:04;8.15;;;4.60;;
76259;SDS011;65076;52.362;6.588;2023-04-05T06:02:35;7.38;;;4.93;;
76259;SDS011;65076;52.362;6.588;2023-04-05T06:05:05;9.20;;;5.22;;
76259;SDS011;65076;52.362;6.588;2023-04-05T06:07:34;8.15;;;5.55;;
76259;SDS011;65076;52.362;6.588;2023-04-05T06:10:04;9.75;;;5.53;;
76259;SDS011;65076;52.362;6.588;2023-04-05T06:12:33;8.43;;;5.40;;
76259;SDS011;65076;52.362;6.588;2023-04-05T06:15:01;8.90;;;6.30;;
76259;SDS011;65076;52.362;6.588;2023-04-05T06:17:29;13.82;;;6.22;;
76259;SDS011;65076;52.362;6.588;2023-04-05T06:20:09;12.90;;;6.68;;
76259;SDS011;65076;52.362;6.588;2023-04-05T06:22:38;10.30;;;5.93;;
76259;SDS011;65076;52.362;6.588;2023-04-05T06:25:07;8.73;;;6.00;;
76259;SDS011;65076;52.362;6.588;2023-04-05T06:27:38;9.65;;;5.88;;
76259;SDS011;65076;52.362;6.588;2023-04-05T06:30:07;8.40;;;5.13;;
76259;SDS011;65076;52.362;6.588;2023-04-05T06:32:36;6.68;;;4.95;;
76259;SDS011;65076;52.362;6.588;2023-04-05T06:35:06;9.55;;;5.65;;
76259;SDS011;65076;52.362;6.588;2023-04-05T06:37:34;9.18;;;4.97;;
76259;SDS011;65076;52.362;6.588;2023-04-05T06:40:02;11.13;;;5.65;;
76259;SDS011;65076;52.362;6.588;2023-04-05T06:42:34;8.15;;;4.93;;
76259;SDS011;65076;52.362;6.588;2023-04-05T06:45:02;5.55;;;4.25;;
76259;SDS011;65076;52.362;6.588;2023-04-05T06:47:32;9.15;;;4.80;;
76259;SDS011;65076;52.362;6.588;2023-04-05T06:50:01;6.72;;;4.63;;
76259;SDS011;65076;52.362;6.588;2023-04-05T06:52:31;9.48;;;5.10;;
76259;SDS011;65076;52.362;6.588;2023-04-05T06:55:00;6.88;;;5.07;;
76259;SDS011;65076;52.362;6.588;2023-04-05T06:57:28;5.75;;;3.75;;
76259;SDS011;65076;52.362;6.588;2023-04-05T06:59:56;5.60;;;4.45;;
76259;SDS011;65076;52.362;6.588;2023-04-05T07:02:23;5.75;;;4.00;;
76259;SDS011;65076;52.362;6.588;2023-04-05T07:04:52;7.25;;;4.28;;
76259;SDS011;65076;52.362;6.588;2023-04-05T07:07:25;8.80;;;4.35;;
76259;SDS011;65076;52.362;6.588;2023-04-05T07:09:54;6.38;;;4.22;;
76259;SDS011;65076;52.362;6.588;2023-04-05T07:12:22;7.50;;;4.75;;
76259;SDS011;65076;52.362;6.588;2023-04-05T07:14:50;6.68;;;4.25;;
76259;SDS011;65076;52.362;6.588;2023-04-05T07:17:18;5.28;;;4.30;;
76259;SDS011;65076;52.362;6.588;2023-04-05T07:19:46;5.50;;;3.70;;
76259;SDS011;65076;52.362;6.588;2023-04-05T07:22:14;4.28;;;3.88;;
76259;SDS011;65076;52.362;6.588;2023-04-05T07:24:43;8.77;;;4.10;;
76259;SDS011;65076;52.362;6.588;2023-04-05T07:27:14;5.50;;;3.70;;
76259;SDS011;65076;52.362;6.588;2023-04-05T07:29:42;5.35;;;3.95;;
76259;SDS011;65076;52.362;6.588;2023-04-05T07:32:13;5.65;;;4.20;;
76259;SDS011;65076;52.362;6.588;2023-04-05T07:34:41;5.75;;;3.53;;
76259;SDS011;65076;52.362;6.588;2023-04-05T07:37:09;7.50;;;4.05;;
76259;SDS011;65076;52.362;6.588;2023-04-05T07:39:37;6.10;;;4.47;;
76259;SDS011;65076;52.362;6.588;2023-04-05T07:42:05;5.55;;;3.45;;
76259;SDS011;65076;52.362;6.588;2023-04-05T07:44:34;5.55;;;3.97;;
76259;SDS011;65076;52.362;6.588;2023-04-05T07:47:02;5.18;;;3.63;;
76259;SDS011;65076;52.362;6.588;2023-04-05T07:49:30;6.75;;;3.22;;
76259;SDS011;65076;52.362;6.588;2023-04-05T07:51:58;9.27;;;3.45;;
76259;SDS011;65076;52.362;6.588;2023-04-05T07:54:26;7.63;;;3.85;;
76259;SDS011;65076;52.362;6.588;2023-04-05T07:56:58;5.13;;;3.55;;
76259;SDS011;65076;52.362;6.588;2023-04-05T07:59:26;7.38;;;3.20;;
76259;SDS011;65076;52.362;6.588;2023-04-05T08:01:55;4.80;;;2.78;;
76259;SDS011;65076;52.362;6.588;2023-04-05T08:04:37;5.22;;;3.53;;
76259;SDS011;65076;52.362;6.588;2023-04-05T08:07:07;5.53;;;3.90;;
76259;SDS011;65076;52.362;6.588;2023-04-05T08:09:36;4.90;;;3.03;;
76259;SDS011;65076;52.362;6.588;2023-04-05T08:12:05;5.20;;;2.88;;
76259;SDS011;65076;52.362;6.588;2023-04-05T08:14:36;3.97;;;3.00;;
76259;SDS011;65076;52.362;6.588;2023-04-05T08:17:05;3.55;;;2.33;;
76259;SDS011;65076;52.362;6.588;2023-04-05T08:19:34;7.32;;;2.90;;
76259;SDS011;65076;52.362;6.588;2023-04-05T08:22:02;5.53;;;2.70;;
76259;SDS011;65076;52.362;6.588;2023-04-05T08:24:30;4.40;;;3.10;;
76259;SDS011;65076;52.362;6.588;2023-04-05T08:26:58;4.63;;;2.85;;
76259;SDS011;65076;52.362;6.588;2023-04-05T08:29:26;8.02;;;2.83;;
76259;SDS011;65076;52.362;6.588;2023-04-05T08:31:55;4.75;;;2.40;;
76259;SDS011;65076;52.362;6.588;2023-04-05T08:34:25;5.60;;;2.75;;
76259;SDS011;65076;52.362;6.588;2023-04-05T08:36:56;4.75;;;2.60;;
76259;SDS011;65076;52.362;6.588;2023-04-05T08:39:26;4.80;;;2.83;;
76259;SDS011;65076;52.362;6.588;2023-04-05T08:41:56;5.68;;;2.53;;
76259;SDS011;65076;52.362;6.588;2023-04-05T08:44:30;7.75;;;2.60;;
76259;SDS011;65076;52.362;6.588;2023-04-05T08:46:58;4.07;;;2.33;;
76259;SDS011;65076;52.362;6.588;2023-04-05T08:49:29;4.20;;;2.47;;
76259;SDS011;65076;52.362;6.588;2023-04-05T08:54:27;3.13;;;1.73;;
76259;SDS011;65076;52.362;6.588;2023-04-05T08:56:55;2.72;;;1.77;;
76259;SDS011;65076;52.362;6.588;2023-04-05T08:59:26;4.63;;;1.90;;
76259;SDS011;65076;52.362;6.588;2023-04-05T09:01:57;2.20;;;1.55;;
76259;SDS011;65076;52.362;6.588;2023-04-05T09:06:58;2.22;;;1.50;;
76259;SDS011;65076;52.362;6.588;2023-04-05T09:09:32;4.53;;;1.88;;
76259;SDS011;65076;52.362;6.588;2023-04-05T09:12:04;4.65;;;1.95;;
76259;SDS011;65076;52.362;6.588;2023-04-05T09:14:34;2.80;;;1.65;;
76259;SDS011;65076;52.362;6.588;2023-04-05T09:17:04;2.95;;;1.52;;
76259;SDS011;65076;52.362;6.588;2023-04-05T09:19:34;4.28;;;1.70;;
76259;SDS011;65076;52.362;6.588;2023-04-05T09:22:03;4.70;;;2.45;;
76259;SDS011;65076;52.362;6.588;2023-04-05T09:24:33;3.75;;;2.20;;
76259;SDS011;65076;52.362;6.588;2023-04-05T09:27:06;4.00;;;2.25;;
76259;SDS011;65076;52.362;6.588;2023-04-05T09:29:36;2.90;;;2.30;;
76259;SDS011;65076;52.362;6.588;2023-04-05T09:34:36;6.28;;;4.10;;
76259;SDS011;65076;52.362;6.588;2023-04-05T09:37:12;4.20;;;3.40;;
76259;SDS011;65076;52.362;6.588;2023-04-05T09:39:42;6.25;;;3.28;;
76259;SDS011;65076;52.362;6.588;2023-04-05T09:42:13;4.93;;;2.83;;
76259;SDS011;65076;52.362;6.588;2023-04-05T09:49:48;4.30;;;3.30;;
76259;SDS011;65076;52.362;6.588;2023-04-05T09:52:17;5.45;;;3.72;;
76259;SDS011;65076;52.362;6.588;2023-04-05T09:54:48;9.00;;;3.70;;
76259;SDS011;65076;52.362;6.588;2023-04-05T09:57:21;5.93;;;4.22;;
76259;SDS011;65076;52.362;6.588;2023-04-05T09:59:51;5.15;;;3.60;;
76259;SDS011;65076;52.362;6.588;2023-04-05T10:02:20;3.85;;;3.40;;
76259;SDS011;65076;52.362;6.588;2023-04-05T10:04:50;4.43;;;2.85;;
76259;SDS011;65076;52.362;6.588;2023-04-05T10:07:18;4.05;;;3.42;;
76259;SDS011;65076;52.362;6.588;2023-04-05T10:09:46;4.22;;;3.75;;
76259;SDS011;65076;52.362;6.588;2023-04-05T10:12:17;9.15;;;3.80;;
76259;SDS011;65076;52.362;6.588;2023-04-05T10:14:52;6.13;;;4.10;;
76259;SDS011;65076;52.362;6.588;2023-04-05T10:17:22;5.00;;;3.30;;
76259;SDS011;65076;52.362;6.588;2023-04-05T10:19:59;4.60;;;3.78;;
76259;SDS011;65076;52.362;6.588;2023-04-05T10:22:39;4.68;;;3.75;;
76259;SDS011;65076;52.362;6.588;2023-04-05T10:25:39;4.60;;;3.75;;
76259;SDS011;65076;52.362;6.588;2023-04-05T10:28:24;4.97;;;3.28;;
76259;SDS011;65076;52.362;6.588;2023-04-05T10:30:59;5.20;;;3.55;;
76259;SDS011;65076;52.362;6.588;2023-04-05T10:33:38;4.90;;;3.85;;
76259;SDS011;65076;52.362;6.588;2023-04-05T10:36:17;5.90;;;3.80;;
76259;SDS011;65076;52.362;6.588;2023-04-05T10:39:03;6.13;;;3.25;;
76259;SDS011;65076;52.362;6.588;2023-04-05T10:41:41;6.68;;;4.13;;
76259;SDS011;65076;52.362;6.588;2023-04-05T10:44:14;4.13;;;3.20;;
76259;SDS011;65076;52.362;6.588;2023-04-05T10:46:52;4.55;;;3.38;;
76259;SDS011;65076;52.362;6.588;2023-04-05T10:49:22;5.15;;;3.58;;
76259;SDS011;65076;52.362;6.588;2023-04-05T10:52:05;5.30;;;3.50;;
76259;SDS011;65076;52.362;6.588;2023-04-05T10:54:33;5.35;;;4.18;;
76259;SDS011;65076;52.362;6.588;2023-04-05T10:57:04;4.80;;;4.07;;
76259;SDS011;65076;52.362;6.588;2023-04-05T10:59:39;4.45;;;3.10;;
76259;SDS011;65076;52.362;6.588;2023-04-05T11:02:11;8.23;;;3.90;;
76259;SDS011;65076;52.362;6.588;2023-04-05T11:04:41;5.80;;;3.50;;
76259;SDS011;65076;52.362;6.588;2023-04-05T11:07:14;4.18;;;3.30;;
76259;SDS011;65076;52.362;6.588;2023-04-05T11:09:50;5.38;;;3.80;;
76259;SDS011;65076;52.362;6.588;2023-04-05T11:15:32;4.68;;;3.47;;
76259;SDS011;65076;52.362;6.588;2023-04-05T11:18:05;3.58;;;3.20;;
76259;SDS011;65076;52.362;6.588;2023-04-05T11:20:39;3.80;;;3.50;;
76259;SDS011;65076;52.362;6.588;2023-04-05T11:23:15;4.53;;;3.55;;
76259;SDS011;65076;52.362;6.588;2023-04-05T11:25:46;4.00;;;3.45;;
76259;SDS011;65076;52.362;6.588;2023-04-05T11:28:24;4.25;;;3.47;;
76259;SDS011;65076;52.362;6.588;2023-04-05T11:30:57;4.68;;;3.58;;
76259;SDS011;65076;52.362;6.588;2023-04-05T11:33:52;5.70;;;4.05;;
76259;SDS011;65076;52.362;6.588;2023-04-05T11:36:29;4.00;;;3.60;;
76259;SDS011;65076;52.362;6.588;2023-04-05T11:39:23;5.22;;;3.25;;
76259;SDS011;65076;52.362;6.588;2023-04-05T11:41:53;4.13;;;3.70;;
76259;SDS011;65076;52.362;6.588;2023-04-05T11:44:39;5.13;;;3.70;;
76259;SDS011;65076;52.362;6.588;2023-04-05T11:47:09;5.53;;;3.40;;
76259;SDS011;65076;52.362;6.588;2023-04-05T11:49:38;4.72;;;3.22;;
76259;SDS011;65076;52.362;6.588;2023-04-05T11:52:11;4.03;;;3.47;;
76259;SDS011;65076;52.362;6.588;2023-04-05T11:54:43;4.75;;;4.03;;
76259;SDS011;65076;52.362;6.588;2023-04-05T11:57:17;6.32;;;3.35;;
76259;SDS011;65076;52.362;6.588;2023-04-05T11:59:48;4.97;;;3.60;;
76259;SDS011;65076;52.362;6.588;2023-04-05T12:02:18;4.60;;;3.47;;
76259;SDS011;65076;52.362;6.588;2023-04-05T12:04:52;4.15;;;3.25;;
76259;SDS011;65076;52.362;6.588;2023-04-05T12:07:24;5.13;;;3.10;;
76259;SDS011;65076;52.362;6.588;2023-04-05T12:10:03;5.53;;;3.50;;
76259;SDS011;65076;52.362;6.588;2023-04-05T12:12:35;4.70;;;3.13;;
76259;SDS011;65076;52.362;6.588;2023-04-05T12:15:05;4.25;;;3.00;;
76259;SDS011;65076;52.362;6.588;2023-04-05T12:17:37;3.85;;;3.08;;
76259;SDS011;65076;52.362;6.588;2023-04-05T12:20:07;4.35;;;3.00;;
76259;SDS011;65076;52.362;6.588;2023-04-05T12:22:37;3.42;;;2.85;;
76259;SDS011;65076;52.362;6.588;2023-04-05T12:25:09;6.47;;;3.22;;
76259;SDS011;65076;52.362;6.588;2023-04-05T12:27:38;4.88;;;3.40;;
76259;SDS011;65076;52.362;6.588;2023-04-05T12:30:11;4.65;;;3.17;;
76259;SDS011;65076;52.362;6.588;2023-04-05T12:32:44;8.50;;;3.13;;
76259;SDS011;65076;52.362;6.588;2023-04-05T12:35:15;4.60;;;3.10;;
76259;SDS011;65076;52.362;6.588;2023-04-05T12:37:45;4.32;;;2.80;;
76259;SDS011;65076;52.362;6.588;2023-04-05T12:40:22;5.15;;;2.95;;
76259;SDS011;65076;52.362;6.588;2023-04-05T12:42:50;5.20;;;3.20;;
76259;SDS011;65076;52.362;6.588;2023-04-05T12:45:18;3.05;;;2.58;;
76259;SDS011;65076;52.362;6.588;2023-04-05T12:47:50;4.38;;;3.10;;
76259;SDS011;65076;52.362;6.588;2023-04-05T12:50:24;4.32;;;3.00;;
76259;SDS011;65076;52.362;6.588;2023-04-05T12:52:56;3.67;;;3.30;;
76259;SDS011;65076;52.362;6.588;2023-04-05T12:55:28;4.30;;;2.83;;
76259;SDS011;65076;52.362;6.588;2023-04-05T12:57:57;3.75;;;2.92;;
76259;SDS011;65076;52.362;6.588;2023-04-05T13:00:27;3.80;;;3.10;;
76259;SDS011;65076;52.362;6.588;2023-04-05T13:02:57;3.78;;;2.85;;
76259;SDS011;65076;52.362;6.588;2023-04-05T13:05:26;5.38;;;2.60;;
76259;SDS011;65076;52.362;6.588;2023-04-05T13:07:56;5.63;;;2.80;;
76259;SDS011;65076;52.362;6.588;2023-04-05T13:10:24;4.18;;;2.60;;
76259;SDS011;65076;52.362;6.588;2023-04-05T13:12:54;3.17;;;2.85;;
76259;SDS011;65076;52.362;6.588;2023-04-05T13:15:23;3.33;;;2.60;;
76259;SDS011;65076;52.362;6.588;2023-04-05T13:17:50;5.30;;;2.72;;
76259;SDS011;65076;52.362;6.588;2023-04-05T13:20:20;3.05;;;2.65;;
76259;SDS011;65076;52.362;6.588;2023-04-05T13:22:48;3.85;;;2.85;;
76259;SDS011;65076;52.362;6.588;2023-04-05T13:25:17;3.00;;;2.42;;
76259;SDS011;65076;52.362;6.588;2023-04-05T13:27:45;3.05;;;2.75;;
76259;SDS011;65076;52.362;6.588;2023-04-05T13:30:14;3.65;;;2.72;;
76259;SDS011;65076;52.362;6.588;2023-04-05T13:32:43;3.30;;;2.88;;
76259;SDS011;65076;52.362;6.588;2023-04-05T13:35:11;4.18;;;2.33;;
76259;SDS011;65076;52.362;6.588;2023-04-05T13:37:39;7.07;;;2.50;;
76259;SDS011;65076;52.362;6.588;2023-04-05T13:40:07;5.20;;;2.70;;
76259;SDS011;65076;52.362;6.588;2023-04-05T13:42:36;3.38;;;2.60;;
76259;SDS011;65076;52.362;6.588;2023-04-05T13:45:04;4.03;;;2.42;;
76259;SDS011;65076;52.362;6.588;2023-04-05T13:47:35;2.72;;;2.40;;
76259;SDS011;65076;52.362;6.588;2023-04-05T13:50:03;6.75;;;2.30;;
76259;SDS011;65076;52.362;6.588;2023-04-05T13:52:34;3.95;;;2.17;;
76259;SDS011;65076;52.362;6.588;2023-04-05T13:55:02;2.63;;;2.20;;
76259;SDS011;65076;52.362;6.588;2023-04-05T13:57:31;4.18;;;2.40;;
76259;SDS011;65076;52.362;6.588;2023-04-05T13:59:59;3.38;;;2.60;;
76259;SDS011;65076;52.362;6.588;2023-04-05T14:02:27;3.40;;;2.42;;
76259;SDS011;65076;52.362;6.588;2023-04-05T14:04:57;4.13;;;2.47;;
76259;SDS011;65076;52.362;6.588;2023-04-05T14:07:24;3.85;;;2.58;;
76259;SDS011;65076;52.362;6.588;2023-04-05T14:09:53;4.55;;;3.20;;
76259;SDS011;65076;52.362;6.588;2023-04-05T14:12:20;2.75;;;1.90;;
76259;SDS011;65076;52.362;6.588;2023-04-05T14:14:48;3.90;;;2.30;;
76259;SDS011;65076;52.362;6.588;2023-04-05T14:17:16;3.35;;;2.30;;
76259;SDS011;65076;52.362;6.588;2023-04-05T14:19:44;2.92;;;2.13;;
76259;SDS011;65076;52.362;6.588;2023-04-05T14:22:14;3.67;;;2.17;;
76259;SDS011;65076;52.362;6.588;2023-04-05T14:24:42;4.03;;;2.08;;
76259;SDS011;65076;52.362;6.588;2023-04-05T14:27:10;3.70;;;1.95;;
76259;SDS011;65076;52.362;6.588;2023-04-05T14:29:39;2.80;;;2.30;;
76259;SDS011;65076;52.362;6.588;2023-04-05T14:32:07;3.40;;;2.15;;
76259;SDS011;65076;52.362;6.588;2023-04-05T14:34:35;3.80;;;2.15;;
76259;SDS011;65076;52.362;6.588;2023-04-05T14:37:03;3.55;;;2.40;;
76259;SDS011;65076;52.362;6.588;2023-04-05T14:39:33;2.97;;;1.98;;
76259;SDS011;65076;52.362;6.588;2023-04-05T14:42:01;4.13;;;2.20;;
76259;SDS011;65076;52.362;6.588;2023-04-05T14:44:29;5.00;;;2.67;;
76259;SDS011;65076;52.362;6.588;2023-04-05T14:46:57;3.80;;;2.13;;
76259;SDS011;65076;52.362;6.588;2023-04-05T14:49:24;4.07;;;2.42;;
76259;SDS011;65076;52.362;6.588;2023-04-05T14:51:52;3.50;;;1.98;;
76259;SDS011;65076;52.362;6.588;2023-04-05T14:54:22;2.58;;;2.00;;
76259;SDS011;65076;52.362;6.588;2023-04-05T14:56:51;6.28;;;2.63;;
76259;SDS011;65076;52.362;6.588;2023-04-05T14:59:19;4.40;;;2.08;;
76259;SDS011;65076;52.362;6.588;2023-04-05T15:01:48;3.92;;;2.65;;
76259;SDS011;65076;52.362;6.588;2023-04-05T15:04:16;3.45;;;2.28;;
76259;SDS011;65076;52.362;6.588;2023-04-05T15:06:44;4.38;;;2.30;;
76259;SDS011;65076;52.362;6.588;2023-04-05T15:09:12;3.55;;;2.15;;
76259;SDS011;65076;52.362;6.588;2023-04-05T15:11:40;4.50;;;2.28;;
76259;SDS011;65076;52.362;6.588;2023-04-05T15:14:10;4.22;;;1.90;;
76259;SDS011;65076;52.362;6.588;2023-04-05T15:16:56;2.65;;;1.95;;
76259;SDS011;65076;52.362;6.588;2023-04-05T15:19:24;2.58;;;2.13;;
76259;SDS011;65076;52.362;6.588;2023-04-05T15:21:52;4.60;;;2.10;;
76259;SDS011;65076;52.362;6.588;2023-04-05T15:24:20;4.22;;;2.72;;
76259;SDS011;65076;52.362;6.588;2023-04-05T15:26:48;3.20;;;2.00;;
76259;SDS011;65076;52.362;6.588;2023-04-05T15:29:18;5.75;;;2.40;;
76259;SDS011;65076;52.362;6.588;2023-04-05T15:34:14;2.65;;;1.90;;